createdAt,value
2019-03-27T00:00:09.484Z,4.87
2019-03-27T00:02:38.049Z,5.80
2019-03-27T00:05:06.775Z,5.58
2019-03-27T00:07:35.380Z,6.27
2019-03-27T00:10:06.663Z,5.35
2019-03-27T00:12:35.282Z,5.30
2019-03-27T00:15:12.755Z,5.93
2019-03-27T00:17:36.137Z,5.20
2019-03-27T00:20:09.310Z,5.42
2019-03-27T00:22:37.868Z,5.90
2019-03-27T00:25:09.696Z,5.80
2019-03-27T00:27:38.207Z,5.73
2019-03-27T00:30:09.230Z,5.37
2019-03-27T00:32:37.707Z,5.47
2019-03-27T00:35:07.696Z,5.60
2019-03-27T00:37:36.317Z,5.28
2019-03-27T00:40:06.878Z,6.13
2019-03-27T00:42:35.434Z,5.60
2019-03-27T00:45:07.940Z,5.50
2019-03-27T00:47:36.507Z,5.83
2019-03-27T00:50:09.149Z,5.37
2019-03-27T00:52:38.252Z,5.75
2019-03-27T00:55:09.029Z,5.60
2019-03-27T00:57:37.717Z,5.50
2019-03-27T01:00:09.384Z,5.20
2019-03-27T01:02:38.079Z,5.80
2019-03-27T01:05:06.969Z,5.90
2019-03-27T01:07:35.475Z,5.83
2019-03-27T01:10:05.069Z,6.35
2019-03-27T01:12:33.549Z,5.70
2019-03-27T01:15:02.126Z,6.27
2019-03-27T01:17:30.773Z,5.23
2019-03-27T01:19:59.301Z,4.70
2019-03-27T01:22:27.829Z,5.67
2019-03-27T01:24:56.380Z,5.50
2019-03-27T01:27:24.931Z,5.77
2019-03-27T01:29:53.510Z,5.83
2019-03-27T01:32:22.015Z,5.73
2019-03-27T01:34:50.527Z,5.90
2019-03-27T01:37:19.110Z,4.73
2019-03-27T01:39:47.762Z,5.70
2019-03-27T01:42:16.246Z,5.23
2019-03-27T01:44:44.861Z,4.85
2019-03-27T01:47:13.419Z,4.70
2019-03-27T01:49:42.012Z,5.40
2019-03-27T01:52:10.603Z,5.40
2019-03-27T01:54:40.085Z,5.07
2019-03-27T01:57:08.624Z,4.40
2019-03-27T01:59:37.216Z,4.87
2019-03-27T02:02:05.726Z,5.13
2019-03-27T02:04:34.267Z,5.10
2019-03-27T02:07:02.782Z,4.87
2019-03-27T02:09:31.387Z,4.80
2019-03-27T02:11:59.934Z,4.83
2019-03-27T02:14:28.708Z,4.90
2019-03-27T02:16:57.214Z,5.07
2019-03-27T02:19:25.757Z,4.97
2019-03-27T02:21:54.264Z,5.03
2019-03-27T02:24:22.814Z,5.42
2019-03-27T02:26:51.461Z,5.57
2019-03-27T02:29:20.059Z,5.10
2019-03-27T02:31:48.681Z,5.20
2019-03-27T02:34:18.151Z,5.37
2019-03-27T02:36:46.902Z,4.90
2019-03-27T02:39:15.488Z,5.60
2019-03-27T02:41:43.981Z,5.35
2019-03-27T02:44:12.628Z,5.53
2019-03-27T02:46:41.401Z,5.35
2019-03-27T02:49:10.011Z,6.43
2019-03-27T02:51:38.662Z,5.83
2019-03-27T02:54:07.210Z,6.07
2019-03-27T02:56:35.749Z,6.13
2019-03-27T02:59:04.322Z,5.80
2019-03-27T03:01:32.863Z,5.60
2019-03-27T03:04:01.337Z,6.37
2019-03-27T03:06:29.922Z,6.83
2019-03-27T03:08:58.503Z,6.75
2019-03-27T03:11:27.073Z,7.27
2019-03-27T03:13:56.319Z,7.53
2019-03-27T03:16:40.913Z,7.20
2019-03-27T03:18:55.055Z,7.03
2019-03-27T03:21:23.635Z,6.60
2019-03-27T03:23:52.185Z,6.83
2019-03-27T03:26:20.770Z,6.95
2019-03-27T03:28:49.353Z,7.60
2019-03-27T03:31:17.938Z,6.70
2019-03-27T03:33:46.483Z,7.13
2019-03-27T03:36:15.067Z,7.60
2019-03-27T03:38:43.624Z,7.13
2019-03-27T03:41:12.155Z,7.67
2019-03-27T03:43:40.675Z,7.92
2019-03-27T03:46:09.240Z,7.73
2019-03-27T03:48:37.887Z,8.70
2019-03-27T03:51:06.835Z,8.60
2019-03-27T03:53:36.122Z,9.03
2019-03-27T03:56:04.904Z,9.00
2019-03-27T03:58:36.974Z,8.57
2019-03-27T04:01:06.522Z,8.80
2019-03-27T04:03:35.535Z,8.97
2019-03-27T04:06:04.391Z,8.80
2019-03-27T04:08:32.949Z,8.43
2019-03-27T04:11:01.578Z,9.35
2019-03-27T04:13:30.078Z,8.77
2019-03-27T04:15:58.550Z,9.30
2019-03-27T04:18:27.094Z,8.03
2019-03-27T04:20:55.677Z,9.23
2019-03-27T04:23:24.324Z,9.50
2019-03-27T04:26:09.205Z,9.37
2019-03-27T04:28:23.061Z,8.10
2019-03-27T04:30:51.679Z,8.33
2019-03-27T04:33:20.215Z,8.70
2019-03-27T04:35:48.796Z,7.43
2019-03-27T04:38:18.259Z,7.97
2019-03-27T04:40:46.811Z,8.43
2019-03-27T04:43:15.414Z,7.80
2019-03-27T04:45:44.030Z,7.47
2019-03-27T04:48:12.505Z,7.97
2019-03-27T04:50:40.999Z,6.93
2019-03-27T04:53:09.482Z,7.00
2019-03-27T04:55:38.099Z,7.10
2019-03-27T04:58:06.697Z,7.17
2019-03-27T05:00:35.377Z,6.97
2019-03-27T05:03:04.136Z,7.20
2019-03-27T05:05:32.749Z,7.30
2019-03-27T05:08:01.298Z,7.45
2019-03-27T05:10:29.834Z,7.70
2019-03-27T05:12:59.346Z,6.33
2019-03-27T05:15:27.835Z,6.50
2019-03-27T05:17:57.227Z,6.87
2019-03-27T05:20:28.679Z,6.73
2019-03-27T05:22:56.162Z,6.63
2019-03-27T05:25:24.706Z,6.30
2019-03-27T05:27:53.318Z,6.07
2019-03-27T05:30:28.853Z,6.33
2019-03-27T05:32:58.034Z,5.77
2019-03-27T05:35:27.263Z,5.53
2019-03-27T05:37:56.122Z,6.23
2019-03-27T05:40:24.782Z,6.00
2019-03-27T05:43:00.695Z,6.07
2019-03-27T05:45:24.156Z,6.62
2019-03-27T05:47:59.434Z,6.43
2019-03-27T05:50:22.882Z,6.17
2019-03-27T05:52:51.455Z,6.13
2019-03-27T05:55:19.929Z,5.43
2019-03-27T05:57:48.603Z,4.15
2019-03-27T06:00:18.387Z,4.13
2019-03-27T06:02:47.449Z,4.58
2019-03-27T06:05:16.040Z,4.73
2019-03-27T06:07:45.299Z,4.70
2019-03-27T06:10:16.479Z,4.63
2019-03-27T06:12:46.880Z,4.73
2019-03-27T06:15:15.426Z,5.23
2019-03-27T06:17:47.438Z,4.30
2019-03-27T06:20:16.227Z,4.10
2019-03-27T06:22:44.787Z,4.20
2019-03-27T06:25:13.868Z,4.30
2019-03-27T06:27:42.495Z,4.20
2019-03-27T06:30:11.315Z,3.63
2019-03-27T06:32:39.868Z,3.77
2019-03-27T06:35:10.320Z,4.00
2019-03-27T06:37:38.862Z,4.40
2019-03-27T06:40:08.663Z,4.87
2019-03-27T06:42:37.248Z,4.40
2019-03-27T06:45:06.430Z,4.53
2019-03-27T06:47:34.984Z,4.53
2019-03-27T06:50:05.007Z,4.77
2019-03-27T06:52:33.601Z,4.80
2019-03-27T06:55:02.143Z,5.00
2019-03-27T06:57:30.755Z,4.47
2019-03-27T06:59:59.347Z,4.55
2019-03-27T07:02:28.995Z,4.13
2019-03-27T07:04:57.682Z,4.13
2019-03-27T07:07:26.263Z,4.45
2019-03-27T07:09:54.779Z,4.33
2019-03-27T07:12:23.359Z,4.45
2019-03-27T07:14:52.267Z,5.03
2019-03-27T07:17:20.877Z,4.97
2019-03-27T07:19:49.465Z,4.85
2019-03-27T07:22:18.055Z,5.13
2019-03-27T07:24:46.617Z,4.62
2019-03-27T07:27:15.481Z,4.58
2019-03-27T07:29:51.467Z,4.87
2019-03-27T07:32:20.007Z,4.35
2019-03-27T07:34:52.790Z,4.17
2019-03-27T07:37:21.415Z,4.70
2019-03-27T07:39:49.926Z,4.60
2019-03-27T07:42:19.230Z,4.42
2019-03-27T07:44:47.705Z,4.62
2019-03-27T07:47:16.187Z,3.92
2019-03-27T07:49:44.780Z,4.50
2019-03-27T07:52:13.325Z,3.98
2019-03-27T07:54:41.906Z,4.05
2019-03-27T07:57:10.530Z,4.25
2019-03-27T07:59:39.127Z,4.33
2019-03-27T08:02:07.662Z,4.08
2019-03-27T08:04:36.235Z,3.60
2019-03-27T08:07:04.949Z,3.72
2019-03-27T08:09:33.420Z,4.10
2019-03-27T08:12:01.920Z,4.08
2019-03-27T08:14:30.451Z,3.12
2019-03-27T08:16:58.955Z,3.30
2019-03-27T08:19:27.659Z,3.40
2019-03-27T08:21:57.103Z,3.33
2019-03-27T08:24:25.604Z,3.22
2019-03-27T08:26:54.235Z,3.50
2019-03-27T08:29:22.802Z,6.30
2019-03-27T08:31:51.442Z,3.65
2019-03-27T08:34:20.064Z,3.00
2019-03-27T08:36:48.606Z,4.00
2019-03-27T08:39:17.180Z,2.75
2019-03-27T08:41:45.749Z,3.33
2019-03-27T08:44:14.311Z,3.52
2019-03-27T08:46:42.857Z,2.75
2019-03-27T08:49:21.867Z,3.20
2019-03-27T08:51:41.642Z,3.47
2019-03-27T08:54:10.184Z,3.30
2019-03-27T08:56:38.760Z,3.15
2019-03-27T08:59:07.422Z,3.30
2019-03-27T09:01:36.306Z,3.20
2019-03-27T09:04:04.947Z,3.20
2019-03-27T09:06:34.290Z,8.73
2019-03-27T09:09:03.712Z,6.20
2019-03-27T09:11:32.335Z,4.57
2019-03-27T09:14:00.889Z,5.12
2019-03-27T09:16:29.375Z,3.92
2019-03-27T09:18:57.963Z,5.55
2019-03-27T09:21:26.501Z,4.20
2019-03-27T09:23:55.145Z,4.25
2019-03-27T09:26:23.662Z,4.03
2019-03-27T09:28:52.215Z,4.08
2019-03-27T09:31:20.930Z,4.65
2019-03-27T09:33:49.515Z,3.95
2019-03-27T09:36:17.978Z,3.70
2019-03-27T09:38:46.450Z,5.37
2019-03-27T09:41:15.465Z,5.80
2019-03-27T09:43:43.970Z,5.28
2019-03-27T09:46:12.514Z,4.60
2019-03-27T09:48:41.192Z,4.30
2019-03-27T09:51:09.758Z,5.20
2019-03-27T09:53:38.313Z,4.90
2019-03-27T09:56:18.338Z,4.43
2019-03-27T09:58:37.168Z,4.37
2019-03-27T10:01:06.397Z,4.22
2019-03-27T10:03:34.971Z,4.40
2019-03-27T10:06:03.801Z,4.47
2019-03-27T10:08:32.344Z,4.33
2019-03-27T10:11:00.997Z,4.17
2019-03-27T10:13:29.552Z,4.20
2019-03-27T10:15:58.183Z,4.23
2019-03-27T10:18:26.845Z,4.47
2019-03-27T10:20:56.156Z,4.47
2019-03-27T10:23:24.775Z,4.85
2019-03-27T10:25:53.297Z,4.95
2019-03-27T10:28:21.911Z,4.85
2019-03-27T10:30:50.550Z,5.15
2019-03-27T10:33:19.146Z,5.40
2019-03-27T10:35:47.692Z,5.20
2019-03-27T10:38:16.236Z,5.30
2019-03-27T10:40:45.386Z,5.50
2019-03-27T10:43:13.941Z,5.20
2019-03-27T10:45:42.538Z,5.47
2019-03-27T10:48:11.273Z,5.15
2019-03-27T10:50:39.858Z,5.50
2019-03-27T10:53:08.423Z,6.40
2019-03-27T10:55:37.021Z,6.30
2019-03-27T10:58:07.321Z,5.45
2019-03-27T11:00:36.100Z,5.87
2019-03-27T11:03:04.823Z,5.60
2019-03-27T11:05:33.388Z,5.62
2019-03-27T11:08:01.941Z,5.62
2019-03-27T11:10:49.871Z,5.17
2019-03-27T11:13:18.668Z,4.50
2019-03-27T11:15:47.373Z,5.50
2019-03-27T11:18:16.051Z,5.67
2019-03-27T11:20:47.538Z,5.92
2019-03-27T11:23:16.088Z,5.35
2019-03-27T11:25:44.919Z,4.90
2019-03-27T11:28:13.471Z,4.37
2019-03-27T11:30:42.747Z,4.08
2019-03-27T11:33:11.480Z,4.03
2019-03-27T11:35:40.480Z,4.30
2019-03-27T11:38:09.228Z,4.10
2019-03-27T11:40:37.888Z,4.30
2019-03-27T11:43:06.595Z,3.92
2019-03-27T11:45:35.331Z,5.22
2019-03-27T11:48:04.375Z,4.50
2019-03-27T11:50:43.992Z,4.62
2019-03-27T11:53:03.183Z,3.60
2019-03-27T11:55:31.833Z,4.45
2019-03-27T11:58:00.385Z,8.68
2019-03-27T12:00:29.108Z,9.55
2019-03-27T12:02:57.703Z,10.13
2019-03-27T12:05:26.344Z,11.60
2019-03-27T12:07:54.907Z,3.95
2019-03-27T12:10:23.487Z,3.15
2019-03-27T12:12:52.030Z,4.78
2019-03-27T12:15:23.668Z,5.70
2019-03-27T12:17:52.251Z,2.65
2019-03-27T12:20:20.801Z,3.20
2019-03-27T12:22:57.707Z,2.50
2019-03-27T12:25:19.618Z,2.90
2019-03-27T12:27:48.172Z,2.77
2019-03-27T12:30:16.996Z,3.27
2019-03-27T12:32:45.640Z,3.05
2019-03-27T12:35:14.155Z,3.20
2019-03-27T12:37:42.840Z,3.10
2019-03-27T12:40:12.298Z,2.95
2019-03-27T12:42:40.816Z,3.20
2019-03-27T12:45:09.383Z,3.25
2019-03-27T12:47:37.969Z,3.80
2019-03-27T12:50:08.285Z,2.27
2019-03-27T12:52:36.976Z,2.08
2019-03-27T12:55:24.888Z,2.55
2019-03-27T12:57:53.507Z,2.60
2019-03-27T13:00:22.498Z,2.42
2019-03-27T13:02:51.084Z,7.37
2019-03-27T13:05:19.710Z,3.22
2019-03-27T13:07:50.205Z,5.27
2019-03-27T13:10:18.504Z,4.33
2019-03-27T13:12:47.050Z,6.37
2019-03-27T13:15:15.748Z,6.35
2019-03-27T13:17:44.458Z,7.75
2019-03-27T13:20:13.349Z,2.45
2019-03-27T13:22:41.918Z,2.90
2019-03-27T13:25:10.754Z,4.37
2019-03-27T13:27:40.065Z,4.67
2019-03-27T13:30:09.976Z,6.50
2019-03-27T13:32:38.554Z,3.65
2019-03-27T13:35:07.979Z,4.25
2019-03-27T13:37:36.736Z,4.22
2019-03-27T13:40:08.645Z,3.00
2019-03-27T13:42:37.199Z,3.72
2019-03-27T13:45:09.118Z,2.77
2019-03-27T13:47:37.655Z,2.62
2019-03-27T13:50:08.845Z,2.50
2019-03-27T13:52:37.378Z,3.20
2019-03-27T13:55:07.410Z,3.50
2019-03-27T13:57:36.776Z,4.33
2019-03-27T14:00:10.756Z,3.30
2019-03-27T14:02:39.343Z,2.40
2019-03-27T14:05:08.364Z,2.72
2019-03-27T14:07:37.167Z,5.20
2019-03-27T14:10:07.373Z,4.17
2019-03-27T14:12:35.953Z,2.65
2019-03-27T14:15:09.851Z,2.20
2019-03-27T14:17:38.458Z,2.50
2019-03-27T14:20:08.235Z,2.27
2019-03-27T14:22:36.783Z,3.58
2019-03-27T14:25:08.433Z,2.70
2019-03-27T14:27:37.063Z,3.20
2019-03-27T14:30:08.161Z,2.92
2019-03-27T14:32:37.321Z,2.90
2019-03-27T14:35:06.103Z,2.45
2019-03-27T14:37:34.721Z,2.42
2019-03-27T14:40:04.778Z,3.17
2019-03-27T14:42:33.319Z,2.50
2019-03-27T14:45:01.877Z,3.52
2019-03-27T14:47:30.477Z,3.10
2019-03-27T14:49:59.096Z,2.65
2019-03-27T14:52:27.746Z,2.35
2019-03-27T14:54:56.335Z,2.77
2019-03-27T14:57:25.166Z,3.10
2019-03-27T14:59:53.717Z,15.75
2019-03-27T15:02:22.408Z,16.02
2019-03-27T15:04:51.000Z,48.78
2019-03-27T15:07:19.737Z,8.50
2019-03-27T15:09:48.315Z,7.65
2019-03-27T15:12:16.876Z,7.25
2019-03-27T15:14:45.425Z,13.50
2019-03-27T15:17:14.067Z,12.90
2019-03-27T15:19:42.618Z,14.60
2019-03-27T15:22:21.850Z,7.60
2019-03-27T15:24:41.577Z,11.12
2019-03-27T15:27:10.179Z,13.73
2019-03-27T15:29:38.777Z,17.23
2019-03-27T15:32:07.461Z,15.68
2019-03-27T15:34:36.037Z,19.32
2019-03-27T15:37:05.241Z,16.52
2019-03-27T15:39:33.918Z,25.02
2019-03-27T15:42:02.500Z,24.92
2019-03-27T15:44:31.102Z,10.20
2019-03-27T15:46:59.778Z,6.95
2019-03-27T15:49:28.413Z,11.10
2019-03-27T15:51:57.063Z,6.85
2019-03-27T15:54:25.743Z,5.67
2019-03-27T15:56:54.439Z,4.50
2019-03-27T15:59:23.089Z,4.70
2019-03-27T16:01:51.773Z,5.30
2019-03-27T16:04:20.399Z,6.17
2019-03-27T16:06:49.034Z,6.47
2019-03-27T16:09:19.816Z,5.65
2019-03-27T16:11:48.404Z,5.53
2019-03-27T16:14:17.018Z,4.58
2019-03-27T16:17:01.291Z,4.87
2019-03-27T16:19:15.923Z,5.17
2019-03-27T16:21:44.550Z,4.72
2019-03-27T16:24:14.885Z,4.90
2019-03-27T16:26:43.600Z,5.13
2019-03-27T16:29:12.171Z,4.78
2019-03-27T16:31:41.168Z,4.60
2019-03-27T16:34:10.864Z,4.53
2019-03-27T16:36:39.478Z,5.05
2019-03-27T16:39:08.307Z,4.80
2019-03-27T16:41:37.052Z,5.28
2019-03-27T16:44:05.674Z,4.70
2019-03-27T16:46:34.378Z,5.00
2019-03-27T16:49:03.055Z,5.00
2019-03-27T16:51:31.576Z,4.72
2019-03-27T16:54:01.889Z,4.67
2019-03-27T16:56:30.500Z,5.40
2019-03-27T16:58:59.092Z,6.00
2019-03-27T17:01:28.176Z,5.42
2019-03-27T17:03:56.750Z,6.08
2019-03-27T17:06:25.350Z,5.95
2019-03-27T17:08:54.036Z,5.90
2019-03-27T17:11:22.690Z,5.85
2019-03-27T17:13:51.278Z,5.97
2019-03-27T17:16:19.985Z,6.05
2019-03-27T17:18:48.545Z,6.60
2019-03-27T17:21:17.101Z,6.03
2019-03-27T17:23:45.688Z,6.03
2019-03-27T17:26:14.348Z,5.80
2019-03-27T17:29:02.336Z,5.70
2019-03-27T17:31:30.878Z,6.23
2019-03-27T17:34:00.164Z,7.10
2019-03-27T17:36:28.767Z,6.73
2019-03-27T17:38:57.310Z,6.57
2019-03-27T17:41:28.169Z,6.30
2019-03-27T17:43:56.295Z,6.40
2019-03-27T17:46:24.943Z,6.47
2019-03-27T17:48:53.573Z,6.27
2019-03-27T17:51:22.258Z,6.78
2019-03-27T17:53:50.816Z,6.23
2019-03-27T17:56:19.442Z,6.93
2019-03-27T17:58:48.120Z,6.60
2019-03-27T18:01:16.668Z,6.50
2019-03-27T18:03:45.235Z,6.70
2019-03-27T18:06:13.853Z,7.47
2019-03-27T18:08:42.418Z,7.53
2019-03-27T18:11:11.050Z,7.57
2019-03-27T18:13:40.235Z,8.60
2019-03-27T18:16:08.772Z,8.63
2019-03-27T18:18:37.525Z,9.33
2019-03-27T18:21:06.196Z,8.50
2019-03-27T18:23:45.146Z,10.20
2019-03-27T18:26:05.093Z,8.93
2019-03-27T18:28:33.678Z,9.07
2019-03-27T18:31:02.227Z,9.95
2019-03-27T18:33:33.824Z,9.20
2019-03-27T18:36:01.419Z,10.07
2019-03-27T18:38:30.030Z,10.27
2019-03-27T18:40:58.585Z,10.33
2019-03-27T18:43:27.172Z,9.70
2019-03-27T18:45:55.836Z,10.43
2019-03-27T18:48:24.557Z,8.90
2019-03-27T18:50:53.152Z,8.90
2019-03-27T18:53:21.829Z,9.13
2019-03-27T18:55:50.434Z,8.43
2019-03-27T18:58:19.039Z,7.57
2019-03-27T19:00:47.571Z,7.43
2019-03-27T19:03:16.165Z,7.67
2019-03-27T19:05:44.755Z,7.97
2019-03-27T19:08:13.778Z,7.80
2019-03-27T19:10:42.390Z,6.97
2019-03-27T19:13:11.107Z,7.50
2019-03-27T19:15:40.202Z,7.12
2019-03-27T19:18:08.851Z,7.07
2019-03-27T19:20:37.493Z,7.87
2019-03-27T19:23:06.162Z,9.30
2019-03-27T19:25:37.204Z,11.10
2019-03-27T19:28:06.193Z,9.43
2019-03-27T19:30:34.685Z,8.87
2019-03-27T19:33:03.234Z,7.87
2019-03-27T19:35:31.890Z,7.10
2019-03-27T19:38:00.529Z,7.33
2019-03-27T19:40:29.092Z,7.83
2019-03-27T19:42:57.683Z,8.30
2019-03-27T19:45:26.261Z,7.90
2019-03-27T19:47:54.928Z,8.50
2019-03-27T19:50:23.629Z,9.17
2019-03-27T19:52:52.210Z,10.80
2019-03-27T19:55:20.886Z,10.13
2019-03-27T19:57:49.476Z,9.77
2019-03-27T20:00:20.042Z,10.90
2019-03-27T20:02:48.662Z,10.03
2019-03-27T20:05:17.254Z,12.57
2019-03-27T20:07:45.820Z,12.33
2019-03-27T20:10:14.418Z,12.80
2019-03-27T20:12:43.015Z,14.20
2019-03-27T20:15:12.962Z,14.40
2019-03-27T20:17:42.056Z,14.43
2019-03-27T20:20:11.090Z,16.07
2019-03-27T20:22:39.651Z,20.47
2019-03-27T20:25:14.658Z,22.47
2019-03-27T20:27:43.912Z,21.63
2019-03-27T20:30:22.596Z,20.27
2019-03-27T20:32:48.694Z,17.27
2019-03-27T20:35:17.310Z,14.07
2019-03-27T20:37:45.875Z,11.77
2019-03-27T20:40:14.984Z,12.17
2019-03-27T20:42:43.635Z,10.03
2019-03-27T20:45:13.543Z,10.03
2019-03-27T20:47:42.151Z,9.80
2019-03-27T20:50:11.500Z,10.20
2019-03-27T20:52:40.067Z,9.57
2019-03-27T20:55:10.560Z,9.50
2019-03-27T20:57:39.199Z,9.77
2019-03-27T21:00:09.377Z,9.03
2019-03-27T21:05:09.189Z,10.07
2019-03-27T21:07:37.742Z,9.88
2019-03-27T21:10:07.183Z,10.23
2019-03-27T21:12:36.077Z,10.53
2019-03-27T21:15:06.159Z,10.00
2019-03-27T21:17:34.722Z,10.33
2019-03-27T21:20:05.087Z,11.23
2019-03-27T21:22:33.569Z,10.07
2019-03-27T21:25:08.678Z,10.53
2019-03-27T21:27:32.289Z,9.83
2019-03-27T21:30:00.880Z,9.90
2019-03-27T21:32:29.803Z,9.93
2019-03-27T21:34:58.454Z,9.90
2019-03-27T21:37:26.990Z,9.70
2019-03-27T21:39:55.643Z,9.53
2019-03-27T21:42:24.327Z,9.50
2019-03-27T21:44:52.905Z,9.13
2019-03-27T21:47:21.461Z,9.50
2019-03-27T21:49:50.037Z,9.43
2019-03-27T21:52:18.504Z,9.30
2019-03-27T21:54:47.047Z,9.07
2019-03-27T21:57:16.371Z,8.73
2019-03-27T21:59:45.164Z,9.07
2019-03-27T22:02:13.686Z,9.23
2019-03-27T22:04:42.222Z,9.13
2019-03-27T22:07:10.783Z,8.20
2019-03-27T22:09:39.386Z,9.73
2019-03-27T22:12:08.003Z,9.33
2019-03-27T22:14:36.550Z,8.93
2019-03-27T22:17:05.091Z,8.80
2019-03-27T22:19:33.597Z,8.40
2019-03-27T22:22:02.091Z,9.07
2019-03-27T22:24:30.652Z,8.43
2019-03-27T22:26:59.256Z,9.43
2019-03-27T22:29:27.774Z,8.00
2019-03-27T22:31:56.357Z,8.23
2019-03-27T22:34:24.963Z,8.10
2019-03-27T22:36:53.575Z,8.30
2019-03-27T22:39:22.129Z,8.57
2019-03-27T22:41:50.639Z,8.37
2019-03-27T22:44:19.190Z,8.75
2019-03-27T22:46:47.806Z,8.67
2019-03-27T22:49:16.405Z,9.63
2019-03-27T22:51:45.018Z,9.43
2019-03-27T22:54:14.040Z,10.97
2019-03-27T22:56:42.642Z,10.20
2019-03-27T22:59:11.180Z,11.60
2019-03-27T23:01:44.936Z,10.87
2019-03-27T23:04:13.587Z,11.57
2019-03-27T23:06:42.229Z,10.53
2019-03-27T23:09:10.795Z,10.70
2019-03-27T23:11:39.406Z,10.47
2019-03-27T23:14:07.989Z,9.43
2019-03-27T23:16:36.950Z,10.17
2019-03-27T23:19:05.484Z,10.47
2019-03-27T23:21:34.029Z,9.67
2019-03-27T23:24:06.382Z,10.33
2019-03-27T23:26:35.023Z,10.03
2019-03-27T23:29:03.674Z,9.30
2019-03-27T23:31:32.199Z,9.60
2019-03-27T23:34:00.709Z,9.95
2019-03-27T23:36:29.189Z,9.63
2019-03-27T23:38:58.657Z,8.43
2019-03-27T23:41:27.299Z,9.80
2019-03-27T23:43:55.839Z,9.70
2019-03-27T23:46:24.388Z,8.70
2019-03-27T23:48:52.970Z,8.93
2019-03-27T23:51:21.446Z,8.68
2019-03-27T23:53:49.995Z,7.80
2019-03-27T23:56:19.209Z,8.27
2019-03-27T23:58:47.746Z,8.40
